createdAt,value
2019-05-05T00:01:55.601Z,100655.72
2019-05-05T00:04:28.537Z,100654.53
2019-05-05T00:06:57.087Z,100661.32
2019-05-05T00:09:25.539Z,100662.86
2019-05-05T00:12:01.438Z,100664.62
2019-05-05T00:14:37.469Z,100666.73
2019-05-05T00:17:16.560Z,100663.50
2019-05-05T00:19:45.486Z,100667.63
2019-05-05T00:22:15.208Z,100667.27
2019-05-05T00:24:44.434Z,100665.75
2019-05-05T00:27:14.945Z,100669.28
2019-05-05T00:29:45.161Z,100670.34
2019-05-05T00:32:15.356Z,100668.84
2019-05-05T00:34:44.564Z,100675.97
2019-05-05T00:37:15.164Z,100678.75
2019-05-05T00:39:45.192Z,100672.58
2019-05-05T00:42:15.408Z,100677.66
2019-05-05T00:44:44.756Z,100675.52
2019-05-05T00:47:25.073Z,100675.52
2019-05-05T00:49:56.122Z,100683.73
2019-05-05T00:52:24.612Z,100678.11
2019-05-05T00:54:55.439Z,100685.22
2019-05-05T00:57:24.281Z,100686.27
2019-05-05T00:59:54.408Z,100689.27
2019-05-05T01:02:25.067Z,100688.94
2019-05-05T01:04:55.264Z,100681.85
2019-05-05T01:07:24.814Z,100689.78
2019-05-05T01:09:54.270Z,100685.78
2019-05-05T01:12:24.367Z,100690.05
2019-05-05T01:14:55.259Z,100690.28
2019-05-05T01:17:25.300Z,100691.33
2019-05-05T01:20:03.369Z,100699.52
2019-05-05T01:22:24.964Z,100697.47
2019-05-05T01:24:55.461Z,100711.23
2019-05-05T01:27:25.354Z,100704.26
2019-05-05T01:29:54.754Z,100716.24
2019-05-05T01:32:25.035Z,100727.24
2019-05-05T01:34:54.925Z,100728.68
2019-05-05T01:37:31.278Z,100732.84
2019-05-05T01:40:01.404Z,100740.27
2019-05-05T01:42:29.850Z,100747.33
2019-05-05T01:44:58.346Z,100753.49
2019-05-05T01:47:26.773Z,100756.35
2019-05-05T01:49:55.362Z,100758.19
2019-05-05T01:52:25.463Z,100767.84
2019-05-05T01:54:54.902Z,100765.59
2019-05-05T01:57:25.214Z,100773.27
2019-05-05T01:59:55.220Z,100771.98
2019-05-05T02:02:25.083Z,100779.12
2019-05-05T02:04:55.398Z,100791.74
2019-05-05T02:07:25.023Z,100799.16
2019-05-05T02:09:55.590Z,100797.23
2019-05-05T02:12:24.753Z,100795.86
2019-05-05T02:14:55.154Z,100800.80
2019-05-05T02:17:24.704Z,100805.04
2019-05-05T02:19:54.954Z,100804.21
2019-05-05T02:22:25.233Z,100797.45
2019-05-05T02:24:55.102Z,100799.99
2019-05-05T02:27:25.214Z,100800.91
2019-05-05T02:30:01.687Z,100803.53
2019-05-05T02:32:31.823Z,100797.60
2019-05-05T02:35:06.435Z,100806.28
2019-05-05T02:37:35.700Z,100804.41
2019-05-05T02:40:07.891Z,100806.03
2019-05-05T02:42:36.772Z,100804.55
2019-05-05T02:45:07.397Z,100811.20
2019-05-05T02:47:47.663Z,100812.91
2019-05-05T02:50:16.816Z,100813.57
2019-05-05T02:52:45.820Z,100820.54
2019-05-05T02:55:14.789Z,100821.94
2019-05-05T02:57:43.970Z,100827.82
2019-05-05T03:00:26.369Z,100837.41
2019-05-05T03:02:57.354Z,100837.72
2019-05-05T03:05:26.079Z,100840.90
2019-05-05T03:07:55.749Z,100837.80
2019-05-05T03:10:24.867Z,100845.52
2019-05-05T03:12:54.367Z,100839.63
2019-05-05T03:15:41.255Z,100840.59
2019-05-05T03:18:09.867Z,100844.20
2019-05-05T03:20:38.602Z,100850.05
2019-05-05T03:23:07.073Z,100857.77
2019-05-05T03:25:35.835Z,100859.12
2019-05-05T03:28:04.466Z,100868.78
2019-05-05T03:30:35.605Z,100868.00
2019-05-05T03:33:05.413Z,100868.94
2019-05-05T03:35:34.591Z,100872.19
2019-05-05T03:38:03.903Z,100871.75
2019-05-05T03:40:34.448Z,100871.17
2019-05-05T03:43:04.679Z,100873.02
2019-05-05T03:45:40.740Z,100872.98
2019-05-05T03:48:09.262Z,100869.13
2019-05-05T03:50:37.882Z,100880.16
2019-05-05T03:53:06.392Z,100886.23
2019-05-05T03:55:35.723Z,100892.86
2019-05-05T03:58:04.249Z,100898.53
2019-05-05T04:00:54.913Z,100904.78
2019-05-05T04:03:23.749Z,100903.69
2019-05-05T04:05:53.954Z,100903.20
2019-05-05T04:08:23.486Z,100902.25
2019-05-05T04:10:52.134Z,100907.08
2019-05-05T04:13:20.619Z,100910.53
2019-05-05T04:16:08.933Z,100906.44
2019-05-05T04:18:39.252Z,100908.96
2019-05-05T04:21:07.707Z,100914.42
2019-05-05T04:23:36.187Z,100912.89
2019-05-05T04:26:04.640Z,100919.27
2019-05-05T04:28:34.555Z,100922.80
2019-05-05T04:31:04.242Z,100924.95
2019-05-05T04:33:34.135Z,100930.32
2019-05-05T04:36:03.897Z,100935.11
2019-05-05T04:38:32.471Z,100933.42
2019-05-05T04:41:00.939Z,100930.98
2019-05-05T04:43:29.438Z,100931.41
2019-05-05T04:45:57.934Z,100933.20
2019-05-05T04:48:28.036Z,100934.00
2019-05-05T04:51:00.811Z,100939.37
2019-05-05T04:53:34.649Z,100944.94
2019-05-05T04:56:04.176Z,100938.37
2019-05-05T04:58:33.588Z,100945.87
2019-05-05T05:01:02.239Z,100946.77
2019-05-05T05:03:34.471Z,100943.27
2019-05-05T05:06:14.631Z,100938.92
2019-05-05T05:08:44.341Z,100934.21
2019-05-05T05:11:14.171Z,100940.36
2019-05-05T05:13:44.069Z,100940.38
2019-05-05T05:16:13.850Z,100942.95
2019-05-05T05:18:44.517Z,100952.08
2019-05-05T05:21:14.495Z,100947.31
2019-05-05T05:23:44.366Z,100948.93
2019-05-05T05:26:13.882Z,100942.83
2019-05-05T05:28:44.710Z,100937.73
2019-05-05T05:31:14.085Z,100951.80
2019-05-05T05:33:43.661Z,100950.23
2019-05-05T05:36:14.256Z,100952.59
2019-05-05T05:38:44.182Z,100961.02
2019-05-05T05:41:14.290Z,100974.67
2019-05-05T05:43:54.132Z,100971.12
2019-05-05T05:46:24.407Z,100969.47
2019-05-05T05:49:09.490Z,100970.25
2019-05-05T05:51:37.971Z,100977.47
2019-05-05T05:54:06.410Z,100975.13
2019-05-05T05:56:34.900Z,100977.84
2019-05-05T05:59:03.719Z,100977.77
2019-05-05T06:01:34.433Z,100986.52
2019-05-05T06:04:04.068Z,100992.06
2019-05-05T06:06:34.709Z,100997.61
2019-05-05T06:09:04.269Z,100995.97
2019-05-05T06:11:34.433Z,100998.67
2019-05-05T06:14:04.042Z,101011.96
2019-05-05T06:16:34.168Z,101010.36
2019-05-05T06:19:03.630Z,101016.42
2019-05-05T06:21:33.784Z,101016.47
2019-05-05T06:24:05.040Z,101019.48
2019-05-05T06:26:34.300Z,101025.92
2019-05-05T06:29:04.335Z,101027.11
2019-05-05T06:31:34.268Z,101023.91
2019-05-05T06:34:03.689Z,101020.61
2019-05-05T06:36:34.039Z,101024.42
2019-05-05T06:39:04.718Z,101020.71
2019-05-05T06:41:44.220Z,101030.38
2019-05-05T06:44:14.329Z,101031.09
2019-05-05T06:46:44.640Z,101031.64
2019-05-05T06:49:13.756Z,101038.59
2019-05-05T06:51:44.023Z,101042.45
2019-05-05T06:54:13.708Z,101041.58
2019-05-05T06:56:44.406Z,101044.42
2019-05-05T06:59:13.670Z,101049.17
2019-05-05T07:01:44.153Z,101043.02
2019-05-05T07:04:13.961Z,101051.96
2019-05-05T07:06:53.443Z,101051.84
2019-05-05T07:09:13.907Z,101051.44
2019-05-05T07:11:43.644Z,101050.48
2019-05-05T07:14:14.262Z,101049.09
2019-05-05T07:16:43.839Z,101044.98
2019-05-05T07:19:14.560Z,101047.75
2019-05-05T07:21:43.659Z,101041.75
2019-05-05T07:24:14.366Z,101048.61
2019-05-05T07:26:44.540Z,101041.48
2019-05-05T07:29:16.342Z,101045.04
2019-05-05T07:31:43.771Z,101042.32
2019-05-05T07:34:13.769Z,101047.23
2019-05-05T07:36:46.585Z,101039.84
2019-05-05T07:39:15.079Z,101042.00
2019-05-05T07:41:44.798Z,101044.42
2019-05-05T07:44:25.874Z,101044.99
2019-05-05T07:46:44.049Z,101046.66
2019-05-05T07:49:13.926Z,101051.72
2019-05-05T07:51:44.191Z,101052.69
2019-05-05T07:54:14.568Z,101053.27
2019-05-05T07:56:44.430Z,101054.03
2019-05-05T07:59:14.609Z,101055.96
2019-05-05T08:01:46.528Z,101064.44
2019-05-05T08:04:13.956Z,101064.70
2019-05-05T08:06:44.357Z,101068.41
2019-05-05T08:09:14.589Z,101071.66
2019-05-05T08:11:43.600Z,101068.52
2019-05-05T08:14:14.395Z,101068.33
2019-05-05T08:16:59.064Z,101065.28
2019-05-05T08:19:41.150Z,101063.09
2019-05-05T08:22:09.667Z,101065.37
2019-05-05T08:24:39.775Z,101059.59
2019-05-05T08:27:10.004Z,101061.45
2019-05-05T08:29:40.099Z,101063.25
2019-05-05T08:32:25.857Z,101065.45
2019-05-05T08:35:00.025Z,101068.73
2019-05-05T08:37:24.694Z,101076.20
2019-05-05T08:39:54.095Z,101074.27
2019-05-05T08:42:24.645Z,101072.24
2019-05-05T08:44:53.831Z,101077.89
2019-05-05T08:47:24.574Z,101078.58
2019-05-05T08:49:53.738Z,101089.00
2019-05-05T08:52:23.831Z,101092.50
2019-05-05T08:54:54.194Z,101093.31
2019-05-05T08:57:23.611Z,101086.25
2019-05-05T08:59:54.330Z,101086.19
2019-05-05T09:02:23.902Z,101083.55
2019-05-05T09:04:53.768Z,101087.34
2019-05-05T09:07:24.308Z,101086.83
2019-05-05T09:09:54.658Z,101080.13
2019-05-05T09:12:23.608Z,101092.23
2019-05-05T09:14:53.846Z,101096.16
2019-05-05T09:17:24.360Z,101094.05
2019-05-05T09:19:53.733Z,101089.28
2019-05-05T09:22:24.460Z,101087.63
2019-05-05T09:24:54.325Z,101084.73
2019-05-05T09:27:30.338Z,101085.41
2019-05-05T09:29:59.058Z,101092.41
2019-05-05T09:32:27.579Z,101090.14
2019-05-05T09:34:56.250Z,101094.69
2019-05-05T09:37:25.006Z,101092.87
2019-05-05T09:39:54.192Z,101087.47
2019-05-05T09:42:23.698Z,101098.45
2019-05-05T09:44:54.127Z,101097.03
2019-05-05T09:47:24.022Z,101092.75
2019-05-05T09:49:54.803Z,101095.70
2019-05-05T09:52:24.391Z,101100.04
2019-05-05T09:54:54.393Z,101100.67
2019-05-05T09:57:23.834Z,101093.00
2019-05-05T09:59:54.309Z,101094.09
2019-05-05T10:02:24.046Z,101101.58
2019-05-05T10:04:54.659Z,101107.08
2019-05-05T10:07:24.349Z,101113.49
2019-05-05T10:09:54.283Z,101101.65
2019-05-05T10:12:22.980Z,101101.30
2019-05-05T10:14:51.536Z,101106.33
2019-05-05T10:17:20.002Z,101106.91
2019-05-05T10:19:48.460Z,101111.20
2019-05-05T10:22:16.920Z,101115.13
2019-05-05T10:24:49.842Z,101109.97
2019-05-05T10:27:18.351Z,101105.26
2019-05-05T10:29:46.819Z,101110.05
2019-05-05T10:32:15.484Z,101112.84
2019-05-05T10:34:45.549Z,101108.02
2019-05-05T10:37:14.327Z,101098.73
2019-05-05T10:39:44.526Z,101101.97
2019-05-05T10:42:14.483Z,101107.48
2019-05-05T10:44:44.564Z,101109.41
2019-05-05T10:47:13.838Z,101114.72
2019-05-05T10:49:44.159Z,101104.56
2019-05-05T10:52:14.261Z,101100.36
2019-05-05T10:54:44.806Z,101109.13
2019-05-05T10:57:14.519Z,101097.58
2019-05-05T10:59:43.613Z,101100.64
2019-05-05T11:02:14.096Z,101100.64
2019-05-05T11:04:44.167Z,101103.83
2019-05-05T11:07:14.550Z,101102.21
2019-05-05T11:09:44.367Z,101112.42
2019-05-05T11:12:14.312Z,101113.77
2019-05-05T11:14:44.273Z,101111.73
2019-05-05T11:17:14.445Z,101103.55
2019-05-05T11:19:44.142Z,101096.23
2019-05-05T11:22:14.717Z,101110.77
2019-05-05T11:24:55.199Z,101114.95
2019-05-05T11:27:13.380Z,101112.84
2019-05-05T11:29:59.861Z,101127.95
2019-05-05T11:32:46.241Z,101116.22
2019-05-05T11:35:14.806Z,101111.26
2019-05-05T11:37:43.809Z,101114.97
2019-05-05T11:40:13.864Z,101112.59
2019-05-05T11:42:42.294Z,101110.47
2019-05-05T11:45:11.720Z,101112.06
2019-05-05T11:47:40.177Z,101113.38
2019-05-05T11:50:08.864Z,101105.59
2019-05-05T11:52:37.331Z,101122.01
2019-05-05T11:55:11.642Z,101114.91
2019-05-05T11:57:37.684Z,101122.92
2019-05-05T12:00:08.424Z,101127.34
2019-05-05T12:02:38.069Z,101127.63
2019-05-05T12:05:07.405Z,101129.75
2019-05-05T12:07:36.001Z,101125.59
2019-05-05T12:10:07.944Z,101124.84
2019-05-05T12:12:36.465Z,101122.55
2019-05-05T12:15:06.649Z,101122.91
2019-05-05T12:17:35.642Z,101119.61
2019-05-05T12:20:09.313Z,101117.90
2019-05-05T12:22:37.864Z,101117.80
2019-05-05T12:25:08.239Z,101121.47
2019-05-05T12:27:54.963Z,101125.56
2019-05-05T12:30:24.493Z,101122.42
2019-05-05T12:32:55.246Z,101123.80
2019-05-05T12:35:23.548Z,101114.97
2019-05-05T12:37:53.797Z,101121.43
2019-05-05T12:40:24.535Z,101119.53
2019-05-05T12:42:54.336Z,101116.17
2019-05-05T12:45:24.743Z,101117.91
2019-05-05T12:48:10.927Z,101107.53
2019-05-05T12:50:39.494Z,101112.16
2019-05-05T12:53:07.946Z,101117.75
2019-05-05T12:55:41.460Z,101111.52
2019-05-05T12:58:06.575Z,101102.67
2019-05-05T13:00:36.473Z,101111.92
2019-05-05T13:03:05.305Z,101117.44
2019-05-05T13:05:34.204Z,101143.13
2019-05-05T13:08:03.853Z,101141.84
2019-05-05T13:10:33.723Z,101142.59
2019-05-05T13:13:03.805Z,101116.67
2019-05-05T13:15:33.925Z,101102.80
2019-05-05T13:18:03.605Z,101110.05
2019-05-05T13:20:34.013Z,101108.67
2019-05-05T13:23:10.004Z,101146.79
2019-05-05T13:25:59.437Z,101116.59
2019-05-05T13:28:27.288Z,101109.98
2019-05-05T13:30:55.788Z,101104.45
2019-05-05T13:33:24.759Z,101108.28
2019-05-05T13:35:53.824Z,101102.91
2019-05-05T13:38:23.997Z,101102.67
2019-05-05T13:40:54.413Z,101104.17
2019-05-05T13:43:23.783Z,101103.70
2019-05-05T13:45:59.911Z,101110.23
2019-05-05T13:48:28.598Z,101105.31
2019-05-05T13:51:16.849Z,101106.12
2019-05-05T13:53:45.403Z,101103.28
2019-05-05T13:56:15.329Z,101102.57
2019-05-05T13:58:44.210Z,101106.87
2019-05-05T14:01:14.477Z,101119.92
2019-05-05T14:03:44.708Z,101127.17
2019-05-05T14:06:13.874Z,101118.09
2019-05-05T14:08:44.618Z,101112.52
2019-05-05T14:11:14.197Z,101131.19
2019-05-05T14:13:45.482Z,101131.42
2019-05-05T14:16:14.302Z,101126.41
2019-05-05T14:18:43.155Z,101129.27
2019-05-05T14:21:11.612Z,101124.23
2019-05-05T14:23:54.516Z,101125.82
2019-05-05T14:26:28.013Z,101131.02
2019-05-05T14:28:54.416Z,101113.75
2019-05-05T14:31:27.560Z,101121.69
2019-05-05T14:33:57.772Z,101122.73
2019-05-05T14:36:33.884Z,101129.13
2019-05-05T14:39:04.278Z,101115.29
2019-05-05T14:41:35.240Z,101121.21
2019-05-05T14:44:04.431Z,101107.09
2019-05-05T14:46:34.039Z,101113.64
2019-05-05T14:49:05.607Z,101112.84
2019-05-05T14:51:34.187Z,101109.50
2019-05-05T14:54:04.593Z,101105.28
2019-05-05T14:56:36.564Z,101117.44
2019-05-05T14:59:04.099Z,101096.12
2019-05-05T15:01:34.422Z,101094.43
2019-05-05T15:04:04.267Z,101090.69
2019-05-05T15:06:34.779Z,101088.02
2019-05-05T15:09:08.056Z,101092.47
2019-05-05T15:11:40.746Z,101096.07
2019-05-05T15:14:09.222Z,101090.82
2019-05-05T15:16:37.731Z,101086.06
2019-05-05T15:19:06.218Z,101089.03
2019-05-05T15:21:34.704Z,101083.76
2019-05-05T15:24:03.244Z,101093.28
2019-05-05T15:26:31.724Z,101090.30
2019-05-05T15:29:01.733Z,101088.84
2019-05-05T15:31:30.624Z,101095.16
2019-05-05T15:33:59.176Z,101090.53
2019-05-05T15:36:29.683Z,101086.12
2019-05-05T15:38:57.844Z,101091.78
2019-05-05T15:41:26.357Z,101090.75
2019-05-05T15:43:54.954Z,101091.41
2019-05-05T15:46:24.424Z,101086.24
2019-05-05T15:48:54.555Z,101072.03
2019-05-05T15:51:23.707Z,101083.66
2019-05-05T15:53:54.234Z,101091.63
2019-05-05T15:56:24.394Z,101088.86
2019-05-05T15:58:53.072Z,101091.70
2019-05-05T16:01:23.643Z,101091.68
2019-05-05T16:03:51.824Z,101084.02
2019-05-05T16:06:20.459Z,101087.15
2019-05-05T16:08:48.983Z,101093.80
2019-05-05T16:11:17.420Z,101093.69
2019-05-05T16:13:45.963Z,101088.25
2019-05-05T16:16:23.670Z,101090.16
2019-05-05T16:19:05.297Z,101089.40
2019-05-05T16:21:43.791Z,101094.94
2019-05-05T16:24:14.016Z,101090.67
2019-05-05T16:26:42.476Z,101093.73
2019-05-05T16:29:11.053Z,101091.78
2019-05-05T16:31:39.500Z,101091.88
2019-05-05T16:34:08.058Z,101092.18
2019-05-05T16:36:36.582Z,101092.73
2019-05-05T16:39:06.924Z,101090.88
2019-05-05T16:41:35.363Z,101090.31
2019-05-05T16:44:05.260Z,101094.92
2019-05-05T16:46:34.175Z,101079.02
2019-05-05T16:49:03.571Z,101084.41
2019-05-05T16:51:36.573Z,101086.95
2019-05-05T16:54:06.813Z,101087.61
2019-05-05T16:56:35.273Z,101078.47
2019-05-05T16:59:04.199Z,101086.58
2019-05-05T17:01:33.971Z,101082.85
2019-05-05T17:04:11.269Z,101083.52
2019-05-05T17:06:33.199Z,101081.36
2019-05-05T17:09:04.500Z,101083.84
2019-05-05T17:11:33.545Z,101081.65
2019-05-05T17:14:09.715Z,101085.91
2019-05-05T17:16:45.574Z,101083.98
2019-05-05T17:19:16.183Z,101089.88
2019-05-05T17:21:53.570Z,101083.30
2019-05-05T17:24:23.988Z,101086.53
2019-05-05T17:26:54.592Z,101086.95
2019-05-05T17:29:23.534Z,101078.31
2019-05-05T17:31:54.020Z,101082.47
2019-05-05T17:34:24.753Z,101083.34
2019-05-05T17:36:53.608Z,101085.86
2019-05-05T17:39:23.884Z,101085.64
2019-05-05T17:41:54.115Z,101085.59
2019-05-05T17:44:36.042Z,101086.28
2019-05-05T17:47:06.667Z,101091.81
2019-05-05T17:49:54.212Z,101085.31
2019-05-05T17:52:36.482Z,101088.28
2019-05-05T17:55:13.445Z,101089.42
2019-05-05T17:57:42.152Z,101088.45
2019-05-05T18:00:11.327Z,101091.23
2019-05-05T18:02:39.836Z,101092.33
2019-05-05T18:05:08.580Z,101093.91
2019-05-05T18:07:38.758Z,101094.42
2019-05-05T18:10:20.622Z,101097.28
2019-05-05T18:12:54.050Z,101098.73
2019-05-05T18:15:40.921Z,101095.44
2019-05-05T18:18:09.458Z,101093.27
2019-05-05T18:20:38.036Z,101095.80
2019-05-05T18:23:06.886Z,101099.64
2019-05-05T18:25:35.373Z,101095.28
2019-05-05T18:28:15.825Z,101101.87
2019-05-05T18:30:34.020Z,101103.27
2019-05-05T18:33:04.190Z,101092.80
2019-05-05T18:35:33.923Z,101101.64
2019-05-05T18:38:04.074Z,101108.23
2019-05-05T18:40:33.746Z,101105.50
2019-05-05T18:43:04.136Z,101104.13
2019-05-05T18:45:32.641Z,101102.48
2019-05-05T18:48:01.329Z,101108.52
2019-05-05T18:50:29.916Z,101103.58
2019-05-05T18:52:58.534Z,101113.70
2019-05-05T18:55:27.076Z,101117.78
2019-05-05T18:57:55.957Z,101119.13
2019-05-05T19:00:43.923Z,101121.05
2019-05-05T19:03:20.770Z,101118.87
2019-05-05T19:05:54.040Z,101117.19
2019-05-05T19:08:24.552Z,101125.13
2019-05-05T19:10:54.194Z,101117.45
2019-05-05T19:13:24.407Z,101125.53
2019-05-05T19:15:53.919Z,101121.44
2019-05-05T19:18:24.502Z,101119.44
2019-05-05T19:20:54.904Z,101122.14
2019-05-05T19:23:23.578Z,101120.45
2019-05-05T19:25:55.854Z,101120.94
2019-05-05T19:28:23.561Z,101125.57
2019-05-05T19:30:52.196Z,101115.45
2019-05-05T19:33:20.959Z,101115.07
2019-05-05T19:35:49.407Z,101113.67
2019-05-05T19:38:17.927Z,101119.59
2019-05-05T19:40:47.248Z,101112.09
2019-05-05T19:43:15.707Z,101108.25
2019-05-05T19:45:44.847Z,101105.44
2019-05-05T19:48:14.926Z,101110.32
2019-05-05T19:50:51.072Z,101104.28
2019-05-05T19:53:24.656Z,101106.84
2019-05-05T19:55:54.729Z,101108.64
2019-05-05T19:58:23.318Z,101112.64
2019-05-05T20:00:52.144Z,101107.96
2019-05-05T20:03:20.675Z,101110.11
2019-05-05T20:05:49.272Z,101107.55
2019-05-05T20:08:17.725Z,101105.60
2019-05-05T20:10:46.306Z,101105.55
2019-05-05T20:13:14.786Z,101112.79
2019-05-05T20:15:47.951Z,101116.16
2019-05-05T20:18:16.539Z,101112.70
2019-05-05T20:20:45.093Z,101108.94
2019-05-05T20:23:13.766Z,101106.99
2019-05-05T20:25:42.239Z,101111.84
2019-05-05T20:28:10.827Z,101104.27
2019-05-05T20:30:39.389Z,101106.52
2019-05-05T20:33:13.744Z,101114.80
2019-05-05T20:35:53.860Z,101102.48
2019-05-05T20:38:24.170Z,101108.75
2019-05-05T20:41:10.735Z,101107.22
2019-05-05T20:43:39.490Z,101109.95
2019-05-05T20:46:08.379Z,101113.84
2019-05-05T20:48:36.969Z,101114.27
2019-05-05T20:51:05.666Z,101113.42
2019-05-05T20:53:34.504Z,101115.31
2019-05-05T20:56:04.339Z,101111.23
2019-05-05T20:58:33.722Z,101107.55
2019-05-05T21:01:04.598Z,101101.37
2019-05-05T21:03:34.657Z,101107.95
2019-05-05T21:06:04.411Z,101104.56
2019-05-05T21:08:34.849Z,101108.80
2019-05-05T21:11:04.409Z,101100.00
2019-05-05T21:13:34.187Z,101101.66
2019-05-05T21:16:03.461Z,101101.13
2019-05-05T21:18:31.915Z,101105.08
2019-05-05T21:21:04.372Z,101109.95
2019-05-05T21:23:34.373Z,101107.86
2019-05-05T21:26:13.996Z,101103.08
2019-05-05T21:28:44.431Z,101099.70
2019-05-05T21:31:14.496Z,101105.34
2019-05-05T21:33:45.193Z,101101.13
2019-05-05T21:36:14.721Z,101098.69
2019-05-05T21:38:43.986Z,101100.05
2019-05-05T21:41:13.836Z,101109.93
2019-05-05T21:43:44.737Z,101100.59
2019-05-05T21:46:12.984Z,101098.95
2019-05-05T21:48:41.481Z,101111.83
2019-05-05T21:51:11.565Z,101106.45
2019-05-05T21:53:47.770Z,101104.74
2019-05-05T21:56:24.794Z,101104.73
2019-05-05T21:58:54.166Z,101108.03
2019-05-05T22:01:26.954Z,101107.28
2019-05-05T22:03:53.800Z,101108.31
2019-05-05T22:06:24.187Z,101108.14
2019-05-05T22:08:53.667Z,101113.68
2019-05-05T22:11:24.283Z,101111.27
2019-05-05T22:13:54.101Z,101113.61
2019-05-05T22:16:22.835Z,101114.41
2019-05-05T22:18:53.874Z,101109.89
2019-05-05T22:21:23.752Z,101107.55
2019-05-05T22:24:12.991Z,101107.24
2019-05-05T22:26:40.152Z,101112.29
2019-05-05T22:29:08.646Z,101112.09
2019-05-05T22:31:37.175Z,101109.67
2019-05-05T22:34:05.780Z,101112.06
2019-05-05T22:36:35.212Z,101111.48
2019-05-05T22:39:06.247Z,101111.45
2019-05-05T22:41:34.716Z,101103.62
2019-05-05T22:44:04.491Z,101100.45
2019-05-05T22:46:34.731Z,101099.68
2019-05-05T22:49:04.005Z,101102.31
2019-05-05T22:51:33.813Z,101104.23
2019-05-05T22:54:03.961Z,101100.77
2019-05-05T22:56:33.770Z,101100.16
2019-05-05T22:59:04.264Z,101096.91
2019-05-05T23:01:32.724Z,101102.64
2019-05-05T23:04:19.402Z,101098.66
2019-05-05T23:06:55.257Z,101096.53
2019-05-05T23:09:23.726Z,101104.45
2019-05-05T23:11:52.162Z,101108.75
2019-05-05T23:14:30.113Z,101097.72
2019-05-05T23:17:05.280Z,101101.34
2019-05-05T23:19:44.544Z,101103.09
2019-05-05T23:22:18.195Z,101099.88
2019-05-05T23:24:54.258Z,101102.08
2019-05-05T23:27:41.027Z,101100.01
2019-05-05T23:30:10.837Z,101099.46
2019-05-05T23:32:39.307Z,101101.19
2019-05-05T23:35:08.166Z,101099.03
2019-05-05T23:37:36.603Z,101099.72
2019-05-05T23:40:06.823Z,101098.58
2019-05-05T23:42:35.255Z,101105.26
2019-05-05T23:45:04.573Z,101101.22
2019-05-05T23:47:34.561Z,101108.63
2019-05-05T23:50:04.693Z,101106.21
2019-05-05T23:52:34.972Z,101106.26
2019-05-05T23:55:04.244Z,101107.33
2019-05-05T23:57:32.692Z,101106.21
